createdAt,value
2018-11-29T00:00:28.164Z,4.80
2018-11-29T00:02:56.756Z,4.70
2018-11-29T00:05:25.285Z,4.80
2018-11-29T00:07:53.788Z,4.50
2018-11-29T00:10:22.193Z,4.50
2018-11-29T00:12:50.983Z,4.53
2018-11-29T00:15:19.927Z,4.90
2018-11-29T00:17:48.297Z,4.80
2018-11-29T00:20:17.789Z,4.73
2018-11-29T00:22:47.053Z,4.73
2018-11-29T00:25:16.249Z,4.17
2018-11-29T00:27:45.291Z,5.23
2018-11-29T00:30:17.244Z,4.23
2018-11-29T00:32:45.666Z,3.97
2018-11-29T00:35:16.262Z,4.33
2018-11-29T00:37:44.691Z,5.07
2018-11-29T00:40:15.838Z,4.60
2018-11-29T00:42:44.569Z,4.73
2018-11-29T00:45:13.997Z,4.10
2018-11-29T00:47:43.533Z,4.00
2018-11-29T00:50:13.085Z,4.50
2018-11-29T00:52:42.337Z,3.77
2018-11-29T00:55:11.677Z,3.83
2018-11-29T00:57:41.243Z,3.83
2018-11-29T01:00:20.695Z,4.00
2018-11-29T01:02:49.314Z,4.03
2018-11-29T01:05:17.729Z,4.17
2018-11-29T01:07:46.090Z,4.03
2018-11-29T01:10:15.715Z,3.70
2018-11-29T01:12:44.437Z,3.90
2018-11-29T01:15:14.539Z,3.47
2018-11-29T01:17:43.399Z,3.17
2018-11-29T01:20:16.590Z,3.70
2018-11-29T01:22:45.102Z,3.50
2018-11-29T01:25:14.776Z,3.50
2018-11-29T01:27:44.192Z,3.70
2018-11-29T01:30:14.481Z,3.63
2018-11-29T01:32:42.926Z,3.27
2018-11-29T01:35:12.284Z,3.27
2018-11-29T01:37:40.901Z,3.30
2018-11-29T01:40:16.968Z,3.17
2018-11-29T01:42:46.612Z,3.33
2018-11-29T01:45:14.996Z,3.87
2018-11-29T01:47:43.434Z,3.50
2018-11-29T01:50:12.064Z,3.23
2018-11-29T01:52:40.431Z,3.47
2018-11-29T01:55:09.451Z,3.47
2018-11-29T01:57:38.115Z,3.20
2018-11-29T02:00:14.171Z,3.60
2018-11-29T02:02:42.864Z,3.60
2018-11-29T02:05:11.880Z,3.80
2018-11-29T02:07:40.285Z,3.00
2018-11-29T02:10:15.461Z,2.90
2018-11-29T02:12:43.911Z,3.73
2018-11-29T02:15:12.332Z,3.43
2018-11-29T02:17:41.132Z,3.37
2018-11-29T02:20:13.879Z,3.30
2018-11-29T02:22:42.690Z,3.40
2018-11-29T02:25:11.150Z,4.07
2018-11-29T02:27:39.603Z,3.60
2018-11-29T02:30:16.018Z,2.93
2018-11-29T02:32:44.445Z,4.03
2018-11-29T02:35:12.899Z,4.17
2018-11-29T02:37:41.778Z,3.80
2018-11-29T02:40:11.488Z,3.93
2018-11-29T02:42:40.077Z,3.97
2018-11-29T02:45:25.198Z,3.97
2018-11-29T02:47:53.613Z,4.10
2018-11-29T02:50:22.048Z,4.03
2018-11-29T02:52:50.764Z,4.13
2018-11-29T02:55:19.177Z,4.13
2018-11-29T02:57:47.574Z,3.87
2018-11-29T03:00:18.343Z,3.93
2018-11-29T03:02:46.770Z,3.70
2018-11-29T03:05:15.680Z,3.77
2018-11-29T03:07:44.316Z,4.20
2018-11-29T03:10:13.686Z,4.00
2018-11-29T03:12:43.000Z,3.90
2018-11-29T03:15:13.656Z,3.73
2018-11-29T03:17:42.315Z,3.87
2018-11-29T03:20:11.735Z,4.00
2018-11-29T03:22:40.525Z,3.80
2018-11-29T03:25:16.886Z,3.97
2018-11-29T03:27:46.328Z,3.93
2018-11-29T03:30:15.752Z,3.83
2018-11-29T03:32:44.731Z,3.73
2018-11-29T03:35:14.717Z,4.23
2018-11-29T03:37:43.067Z,3.97
2018-11-29T03:40:14.242Z,3.70
2018-11-29T03:42:42.973Z,4.07
2018-11-29T03:45:13.385Z,3.67
2018-11-29T03:47:41.725Z,3.80
2018-11-29T03:50:17.866Z,4.10
2018-11-29T03:52:46.505Z,3.30
2018-11-29T03:55:14.862Z,4.00
2018-11-29T03:57:43.415Z,3.80
2018-11-29T04:00:23.348Z,3.60
2018-11-29T04:02:52.120Z,3.80
2018-11-29T04:05:20.422Z,3.50
2018-11-29T04:07:48.750Z,4.00
2018-11-29T04:10:17.359Z,3.77
2018-11-29T04:12:45.703Z,4.20
2018-11-29T04:15:14.879Z,3.73
2018-11-29T04:17:43.767Z,3.60
2018-11-29T04:20:14.217Z,4.23
2018-11-29T04:22:42.598Z,3.80
2018-11-29T04:25:12.344Z,3.60
2018-11-29T04:27:40.713Z,3.50
2018-11-29T04:30:10.721Z,3.50
2018-11-29T04:32:39.355Z,3.60
2018-11-29T04:35:08.699Z,3.60
2018-11-29T04:37:37.045Z,3.13
2018-11-29T04:40:07.269Z,3.83
2018-11-29T04:42:35.747Z,3.27
2018-11-29T04:45:05.217Z,3.67
2018-11-29T04:47:33.721Z,3.30
2018-11-29T04:50:02.044Z,3.10
2018-11-29T04:52:30.349Z,3.00
2018-11-29T04:54:58.959Z,3.20
2018-11-29T04:57:27.308Z,3.23
2018-11-29T04:59:56.631Z,2.83
2018-11-29T05:02:25.086Z,2.70
2018-11-29T05:04:53.434Z,2.30
2018-11-29T05:07:21.777Z,2.40
2018-11-29T05:09:50.262Z,2.40
2018-11-29T05:12:18.596Z,2.37
2018-11-29T05:14:46.943Z,1.93
2018-11-29T05:17:15.490Z,2.80
2018-11-29T05:19:44.078Z,2.10
2018-11-29T05:22:12.494Z,2.10
2018-11-29T05:24:40.975Z,1.80
2018-11-29T05:27:09.310Z,2.27
2018-11-29T05:29:37.623Z,2.27
2018-11-29T05:32:06.891Z,2.27
2018-11-29T05:34:34.982Z,2.40
2018-11-29T05:37:03.614Z,2.10
2018-11-29T05:39:32.237Z,2.43
2018-11-29T05:42:00.581Z,2.03
2018-11-29T05:44:28.886Z,2.70
2018-11-29T05:46:57.471Z,2.67
2018-11-29T05:49:25.798Z,3.30
2018-11-29T05:51:54.140Z,2.73
2018-11-29T05:54:22.910Z,2.80
2018-11-29T05:56:51.321Z,2.43
2018-11-29T05:59:19.662Z,2.70
2018-11-29T06:01:49.062Z,2.87
2018-11-29T06:04:17.419Z,2.67
2018-11-29T06:06:45.774Z,3.00
2018-11-29T06:09:14.414Z,2.70
2018-11-29T06:11:42.788Z,3.00
2018-11-29T06:14:11.106Z,3.07
2018-11-29T06:16:39.913Z,3.10
2018-11-29T06:19:09.019Z,3.73
2018-11-29T06:21:37.372Z,2.70
2018-11-29T06:24:06.189Z,3.07
2018-11-29T06:26:34.534Z,2.90
2018-11-29T06:29:03.835Z,3.33
2018-11-29T06:31:32.577Z,3.80
2018-11-29T06:34:00.928Z,2.83
2018-11-29T06:36:29.267Z,2.97
2018-11-29T06:38:57.823Z,3.00
2018-11-29T06:41:26.181Z,2.97
2018-11-29T06:43:54.541Z,3.33
2018-11-29T06:46:23.057Z,2.47
2018-11-29T06:48:51.687Z,2.67
2018-11-29T06:51:20.039Z,2.20
2018-11-29T06:53:54.031Z,2.30
2018-11-29T06:56:22.363Z,2.70
2018-11-29T06:58:50.775Z,3.03
2018-11-29T07:01:19.336Z,2.27
2018-11-29T07:03:47.673Z,2.20
2018-11-29T07:06:18.073Z,2.40
2018-11-29T07:08:46.649Z,2.00
2018-11-29T07:11:15.083Z,2.33
2018-11-29T07:13:43.485Z,2.13
2018-11-29T07:16:12.200Z,2.37
2018-11-29T07:18:40.707Z,1.90
2018-11-29T07:21:20.437Z,2.07
2018-11-29T07:23:48.773Z,2.20
2018-11-29T07:26:17.136Z,2.50
2018-11-29T07:28:45.646Z,1.97
2018-11-29T07:31:15.152Z,2.27
2018-11-29T07:33:43.483Z,1.90
2018-11-29T07:36:12.064Z,2.07
2018-11-29T07:38:40.420Z,1.90
2018-11-29T07:41:08.744Z,2.07
2018-11-29T07:43:37.268Z,2.13
2018-11-29T07:46:05.828Z,2.70
2018-11-29T07:48:34.169Z,2.43
2018-11-29T07:51:02.714Z,2.10
2018-11-29T07:53:31.036Z,2.70
2018-11-29T07:55:59.378Z,2.07
2018-11-29T07:58:27.900Z,2.40
2018-11-29T08:00:56.249Z,2.50
2018-11-29T08:03:24.582Z,2.07
2018-11-29T08:05:54.124Z,2.67
2018-11-29T08:08:22.516Z,2.57
2018-11-29T08:10:50.864Z,2.50
2018-11-29T08:13:19.334Z,2.23
2018-11-29T08:15:47.882Z,2.30
2018-11-29T08:18:16.226Z,2.30
2018-11-29T08:20:44.786Z,2.23
2018-11-29T08:23:13.796Z,2.43
2018-11-29T08:25:42.114Z,2.40
2018-11-29T08:28:10.634Z,2.60
2018-11-29T08:30:38.964Z,2.70
2018-11-29T08:33:07.395Z,2.33
2018-11-29T08:35:36.561Z,2.47
2018-11-29T08:38:05.408Z,2.30
2018-11-29T08:40:33.862Z,3.27
2018-11-29T08:43:02.418Z,2.50
2018-11-29T08:45:30.949Z,2.27
2018-11-29T08:47:59.297Z,2.63
2018-11-29T08:50:27.826Z,2.33
2018-11-29T08:52:56.153Z,2.80
2018-11-29T08:55:24.505Z,2.57
2018-11-29T08:57:53.078Z,2.33
2018-11-29T09:00:22.543Z,3.03
2018-11-29T09:02:51.008Z,2.77
2018-11-29T09:05:19.430Z,3.40
2018-11-29T09:07:48.535Z,2.60
2018-11-29T09:10:18.105Z,2.50
2018-11-29T09:12:46.495Z,2.60
2018-11-29T09:15:18.482Z,2.23
2018-11-29T09:17:47.222Z,2.40
2018-11-29T09:20:16.383Z,2.53
2018-11-29T09:22:44.755Z,2.70
2018-11-29T09:25:15.151Z,2.40
2018-11-29T09:27:43.504Z,2.57
2018-11-29T09:30:12.954Z,2.57
2018-11-29T09:32:41.969Z,2.17
2018-11-29T09:35:10.396Z,2.53
2018-11-29T09:37:38.758Z,2.43
2018-11-29T09:40:11.759Z,2.23
2018-11-29T09:42:40.245Z,2.23
2018-11-29T09:45:13.114Z,2.00
2018-11-29T09:47:41.416Z,2.90
2018-11-29T09:50:11.804Z,2.10
2018-11-29T09:52:40.878Z,2.30
2018-11-29T09:55:11.958Z,2.13
2018-11-29T09:57:40.476Z,1.90
2018-11-29T10:00:19.642Z,1.97
2018-11-29T10:03:02.362Z,2.10
2018-11-29T10:05:30.931Z,2.50
2018-11-29T10:07:59.414Z,2.33
2018-11-29T10:10:27.759Z,2.30
2018-11-29T10:12:56.297Z,2.17
2018-11-29T10:15:24.650Z,2.30
2018-11-29T10:17:53.669Z,2.17
2018-11-29T10:20:22.069Z,2.63
2018-11-29T10:22:50.417Z,2.90
2018-11-29T10:25:18.751Z,2.33
2018-11-29T10:27:52.091Z,2.27
2018-11-29T10:30:22.794Z,2.50
2018-11-29T10:32:51.177Z,2.30
2018-11-29T10:35:19.751Z,2.33
2018-11-29T10:37:48.075Z,2.93
2018-11-29T10:40:16.449Z,2.60
2018-11-29T10:42:45.067Z,2.70
2018-11-29T10:45:14.539Z,2.90
2018-11-29T10:47:43.965Z,2.80
2018-11-29T10:50:14.150Z,2.73
2018-11-29T10:52:42.591Z,2.80
2018-11-29T10:55:14.344Z,2.67
2018-11-29T10:57:42.783Z,2.27
2018-11-29T11:00:26.842Z,2.87
2018-11-29T11:03:02.624Z,2.60
2018-11-29T11:05:31.439Z,2.63
2018-11-29T11:07:59.796Z,2.93
2018-11-29T11:10:28.321Z,2.60
2018-11-29T11:12:56.663Z,2.90
2018-11-29T11:15:25.014Z,2.67
2018-11-29T11:17:53.549Z,2.90
2018-11-29T11:20:21.888Z,2.90
2018-11-29T11:22:50.266Z,2.43
2018-11-29T11:25:18.773Z,2.70
2018-11-29T11:27:47.100Z,2.50
2018-11-29T11:30:17.476Z,2.73
2018-11-29T11:32:47.037Z,2.60
2018-11-29T11:35:15.408Z,2.70
2018-11-29T11:37:43.729Z,3.20
2018-11-29T11:40:13.947Z,2.60
2018-11-29T11:42:42.314Z,2.60
2018-11-29T11:45:12.838Z,2.40
2018-11-29T11:47:41.332Z,2.47
2018-11-29T11:50:11.514Z,2.60
2018-11-29T11:52:39.924Z,2.47
2018-11-29T11:55:08.898Z,2.60
2018-11-29T11:57:37.214Z,2.23
2018-11-29T12:00:42.832Z,2.70
2018-11-29T12:03:12.226Z,2.10
2018-11-29T12:05:40.708Z,2.50
2018-11-29T12:08:09.268Z,2.47
2018-11-29T12:10:38.222Z,2.20
2018-11-29T12:13:07.409Z,2.50
2018-11-29T12:15:36.702Z,1.93
2018-11-29T12:18:05.728Z,2.00
2018-11-29T12:20:34.105Z,2.80
2018-11-29T12:23:02.715Z,1.87
2018-11-29T12:25:31.081Z,2.10
2018-11-29T12:27:59.407Z,2.07
2018-11-29T12:30:31.047Z,2.13
2018-11-29T12:33:03.404Z,1.70
2018-11-29T12:35:32.137Z,2.00
2018-11-29T12:38:00.467Z,1.73
2018-11-29T12:40:28.815Z,2.00
2018-11-29T12:42:57.320Z,1.90
2018-11-29T12:45:25.645Z,1.80
2018-11-29T12:47:53.978Z,1.90
2018-11-29T12:50:23.708Z,2.10
2018-11-29T12:52:52.027Z,2.10
2018-11-29T12:55:21.284Z,2.00
2018-11-29T12:58:04.587Z,2.03
2018-11-29T13:00:20.267Z,1.90
2018-11-29T13:02:52.737Z,2.03
2018-11-29T13:05:21.134Z,2.10
2018-11-29T13:07:49.473Z,2.00
2018-11-29T13:10:19.130Z,2.20
2018-11-29T13:12:47.490Z,1.87
2018-11-29T13:15:17.985Z,1.90
2018-11-29T13:17:46.366Z,1.83
2018-11-29T13:20:15.625Z,1.80
2018-11-29T13:22:43.993Z,1.70
2018-11-29T13:25:15.468Z,2.13
2018-11-29T13:27:43.823Z,2.00
2018-11-29T13:30:13.163Z,2.30
2018-11-29T13:32:41.670Z,1.87
2018-11-29T13:35:25.973Z,1.80
2018-11-29T13:37:58.432Z,1.80
2018-11-29T13:40:27.123Z,1.87
2018-11-29T13:42:55.492Z,1.90
2018-11-29T13:45:24.072Z,1.90
2018-11-29T13:47:52.389Z,2.10
2018-11-29T13:50:20.732Z,1.83
2018-11-29T13:52:49.141Z,1.80
2018-11-29T13:55:17.664Z,1.90
2018-11-29T13:57:49.602Z,1.97
2018-11-29T14:00:25.676Z,1.57
2018-11-29T14:02:55.309Z,1.73
2018-11-29T14:05:23.611Z,1.57
2018-11-29T14:07:51.997Z,1.70
2018-11-29T14:10:21.357Z,1.60
2018-11-29T14:12:51.833Z,1.70
2018-11-29T14:15:23.264Z,2.03
2018-11-29T14:17:51.674Z,1.70
2018-11-29T14:20:20.026Z,1.80
2018-11-29T14:22:48.563Z,1.93
2018-11-29T14:25:17.277Z,1.70
2018-11-29T14:27:49.758Z,1.80
2018-11-29T14:30:26.851Z,1.80
2018-11-29T14:32:56.356Z,2.03
2018-11-29T14:35:24.724Z,1.60
2018-11-29T14:37:53.064Z,1.57
2018-11-29T14:40:23.446Z,1.83
2018-11-29T14:42:51.848Z,1.70
2018-11-29T14:45:22.028Z,1.63
2018-11-29T14:47:50.500Z,1.83
2018-11-29T14:50:25.202Z,1.60
2018-11-29T14:52:53.706Z,2.00
2018-11-29T14:55:22.072Z,2.00
2018-11-29T14:57:50.551Z,2.00
2018-11-29T15:00:19.970Z,2.00
2018-11-29T15:02:49.039Z,1.93
2018-11-29T15:05:20.395Z,1.97
2018-11-29T15:07:48.846Z,2.00
2018-11-29T15:10:17.237Z,1.70
2018-11-29T15:12:45.607Z,2.13
2018-11-29T15:15:14.388Z,1.70
2018-11-29T15:17:43.515Z,2.27
2018-11-29T15:20:17.387Z,2.03
2018-11-29T15:22:45.757Z,1.90
2018-11-29T15:25:14.257Z,1.90
2018-11-29T15:27:42.835Z,2.33
2018-11-29T15:30:14.272Z,2.10
2018-11-29T15:32:42.687Z,2.00
2018-11-29T15:35:11.939Z,2.07
2018-11-29T15:37:40.299Z,1.83
2018-11-29T15:40:13.830Z,1.83
2018-11-29T15:42:42.207Z,1.80
2018-11-29T15:45:19.421Z,1.80
2018-11-29T15:47:47.816Z,1.80
2018-11-29T15:50:16.389Z,1.90
2018-11-29T15:52:44.948Z,2.20
2018-11-29T15:55:16.003Z,1.90
2018-11-29T15:57:44.934Z,1.90
2018-11-29T16:00:21.076Z,2.00
2018-11-29T16:02:49.956Z,1.80
2018-11-29T16:05:18.353Z,1.80
2018-11-29T16:07:46.782Z,2.10
2018-11-29T16:10:16.166Z,1.90
2018-11-29T16:12:44.604Z,2.10
2018-11-29T16:15:14.768Z,1.83
2018-11-29T16:17:43.459Z,2.00
2018-11-29T16:20:26.673Z,2.00
2018-11-29T16:22:55.094Z,2.00
2018-11-29T16:25:23.438Z,1.83
2018-11-29T16:27:51.987Z,2.10
2018-11-29T16:30:23.568Z,1.87
2018-11-29T16:32:51.940Z,2.00
2018-11-29T16:35:20.490Z,1.87
2018-11-29T16:37:48.841Z,2.17
2018-11-29T16:40:17.182Z,1.90
2018-11-29T16:42:45.702Z,2.30
2018-11-29T16:45:14.175Z,1.93
2018-11-29T16:47:42.770Z,2.20
2018-11-29T16:50:13.294Z,2.13
2018-11-29T16:52:41.628Z,2.47
2018-11-29T16:55:11.399Z,2.20
2018-11-29T16:57:41.600Z,2.47
2018-11-29T17:00:18.054Z,2.00
2018-11-29T17:02:46.464Z,2.40
2018-11-29T17:05:15.276Z,2.40
2018-11-29T17:07:43.608Z,2.10
2018-11-29T17:10:14.233Z,2.47
2018-11-29T17:12:43.978Z,2.57
2018-11-29T17:15:14.002Z,2.30
2018-11-29T17:17:42.607Z,2.47
2018-11-29T17:20:14.962Z,2.60
2018-11-29T17:22:43.695Z,2.10
2018-11-29T17:25:12.589Z,2.27
2018-11-29T17:27:41.052Z,2.27
2018-11-29T17:30:15.793Z,2.23
2018-11-29T17:32:44.262Z,2.30
2018-11-29T17:35:12.630Z,2.40
2018-11-29T17:37:41.244Z,2.40
2018-11-29T17:40:10.862Z,2.70
2018-11-29T17:42:39.262Z,2.40
2018-11-29T17:45:10.495Z,2.40
2018-11-29T17:47:38.834Z,2.77
2018-11-29T17:50:10.035Z,2.40
2018-11-29T17:52:38.495Z,2.27
2018-11-29T17:55:06.910Z,2.23
2018-11-29T17:57:35.238Z,2.20
2018-11-29T18:00:04.798Z,2.30
2018-11-29T18:02:33.109Z,2.40
2018-11-29T18:05:01.467Z,2.73
2018-11-29T18:07:30.189Z,2.63
2018-11-29T18:09:58.693Z,2.40
2018-11-29T18:12:27.071Z,2.90
2018-11-29T18:14:55.628Z,2.83
2018-11-29T18:17:23.938Z,3.00
2018-11-29T18:19:52.301Z,2.50
2018-11-29T18:22:20.867Z,2.83
2018-11-29T18:24:49.177Z,2.30
2018-11-29T18:27:17.553Z,2.60
2018-11-29T18:29:45.967Z,2.60
2018-11-29T18:32:14.329Z,2.77
2018-11-29T18:34:42.683Z,2.80
2018-11-29T18:37:11.338Z,2.73
2018-11-29T18:39:39.877Z,3.00
2018-11-29T18:42:08.223Z,2.60
2018-11-29T18:44:37.009Z,2.60
2018-11-29T18:47:05.838Z,2.77
2018-11-29T18:49:34.177Z,2.97
2018-11-29T18:52:03.048Z,2.80
2018-11-29T18:54:31.385Z,3.00
2018-11-29T18:57:00.038Z,2.60
2018-11-29T18:59:28.498Z,2.67
2018-11-29T19:01:56.839Z,2.50
2018-11-29T19:04:25.194Z,2.83
2018-11-29T19:06:53.790Z,3.33
2018-11-29T19:09:22.134Z,3.10
2018-11-29T19:11:50.462Z,3.00
2018-11-29T19:14:18.944Z,2.63
2018-11-29T19:16:47.470Z,3.30
2018-11-29T19:19:15.835Z,3.33
2018-11-29T19:21:44.148Z,3.40
2018-11-29T19:24:12.492Z,2.90
2018-11-29T19:26:40.850Z,2.90
2018-11-29T19:29:09.454Z,2.90
2018-11-29T19:31:37.820Z,2.73
2018-11-29T19:34:06.288Z,3.00
2018-11-29T19:36:34.946Z,3.20
2018-11-29T19:39:03.532Z,3.17
2018-11-29T19:41:31.873Z,2.70
2018-11-29T19:44:00.396Z,3.10
2018-11-29T19:46:28.626Z,3.83
2018-11-29T19:48:56.994Z,3.00
2018-11-29T19:51:25.452Z,3.10
2018-11-29T19:53:53.798Z,2.73
2018-11-29T19:56:22.137Z,3.10
2018-11-29T19:58:50.706Z,2.70
2018-11-29T20:01:19.053Z,2.93
2018-11-29T20:03:47.419Z,3.33
2018-11-29T20:06:15.947Z,2.90
2018-11-29T20:08:44.285Z,3.00
2018-11-29T20:11:12.637Z,2.50
2018-11-29T20:13:41.294Z,2.90
2018-11-29T20:16:10.220Z,2.80
2018-11-29T20:18:38.879Z,2.77
2018-11-29T20:21:07.192Z,3.00
2018-11-29T20:23:35.717Z,3.13
2018-11-29T20:26:04.077Z,3.07
2018-11-29T20:28:32.659Z,2.87
2018-11-29T20:31:01.151Z,2.93
2018-11-29T20:33:29.637Z,3.40
2018-11-29T20:35:58.398Z,3.63
2018-11-29T20:38:26.977Z,2.57
2018-11-29T20:40:55.417Z,3.03
2018-11-29T20:43:24.492Z,3.00
2018-11-29T20:45:54.537Z,3.23
2018-11-29T20:48:28.153Z,3.50
2018-11-29T20:50:57.907Z,3.07
2018-11-29T20:53:29.163Z,3.13
2018-11-29T20:55:57.541Z,3.20
2018-11-29T20:58:25.989Z,3.10
2018-11-29T21:00:54.822Z,3.13
2018-11-29T21:03:23.161Z,2.60
2018-11-29T21:05:51.568Z,3.00
2018-11-29T21:08:20.151Z,2.90
2018-11-29T21:10:48.477Z,2.60
2018-11-29T21:13:16.828Z,2.80
2018-11-29T21:15:45.392Z,2.67
2018-11-29T21:18:14.689Z,2.73
2018-11-29T21:20:43.686Z,3.63
2018-11-29T21:23:14.683Z,4.30
2018-11-29T21:25:43.517Z,3.50
2018-11-29T21:28:11.859Z,2.83
2018-11-29T21:30:40.377Z,3.10
2018-11-29T21:33:09.534Z,3.37
2018-11-29T21:35:37.977Z,2.93
2018-11-29T21:38:15.209Z,3.00
2018-11-29T21:40:46.157Z,3.10
2018-11-29T21:43:14.523Z,2.83
2018-11-29T21:45:43.145Z,3.10
2018-11-29T21:48:11.476Z,3.03
2018-11-29T21:50:39.841Z,2.93
2018-11-29T21:53:08.437Z,2.90
2018-11-29T21:55:36.820Z,3.30
2018-11-29T21:58:05.169Z,2.80
2018-11-29T22:00:33.630Z,2.83
2018-11-29T22:03:01.994Z,2.90
2018-11-29T22:05:30.332Z,2.83
2018-11-29T22:07:58.846Z,3.20
2018-11-29T22:10:27.187Z,3.00
2018-11-29T22:12:55.500Z,2.97
2018-11-29T22:15:24.023Z,3.37
2018-11-29T22:18:09.820Z,3.07
2018-11-29T22:20:38.412Z,2.47
2018-11-29T22:23:06.781Z,3.10
2018-11-29T22:25:35.150Z,3.40
2018-11-29T22:28:03.797Z,3.37
2018-11-29T22:30:32.142Z,2.80
2018-11-29T22:33:00.460Z,2.80
2018-11-29T22:35:29.228Z,3.80
2018-11-29T22:37:57.572Z,3.20
2018-11-29T22:40:25.928Z,3.03
2018-11-29T22:42:54.488Z,3.07
2018-11-29T22:45:22.810Z,3.07
2018-11-29T22:47:51.218Z,2.90
2018-11-29T22:50:19.823Z,3.27
2018-11-29T22:52:48.147Z,3.00
2018-11-29T22:55:16.492Z,3.30
2018-11-29T22:57:45.055Z,3.10
2018-11-29T23:00:19.209Z,2.83
2018-11-29T23:02:48.792Z,3.00
2018-11-29T23:05:17.158Z,3.30
2018-11-29T23:07:45.684Z,2.90
2018-11-29T23:10:14.215Z,3.00
2018-11-29T23:12:42.573Z,3.07
2018-11-29T23:15:12.639Z,2.90
2018-11-29T23:17:41.289Z,2.70
2018-11-29T23:20:12.398Z,2.90
2018-11-29T23:22:41.154Z,2.87
2018-11-29T23:25:13.699Z,2.63
2018-11-29T23:27:42.190Z,2.80
2018-11-29T23:30:15.071Z,3.00
2018-11-29T23:32:43.730Z,3.00
2018-11-29T23:35:12.970Z,2.70
2018-11-29T23:37:41.747Z,3.10
2018-11-29T23:40:17.691Z,2.80
2018-11-29T23:42:46.716Z,2.50
2018-11-29T23:45:15.155Z,3.00
2018-11-29T23:47:44.335Z,3.03
2018-11-29T23:50:15.001Z,3.03
2018-11-29T23:52:43.434Z,3.60
2018-11-29T23:55:13.992Z,2.97
2018-11-29T23:57:42.696Z,2.90
